Time;durP1;ratioP1;P1;durP2;ratioP2;P2;SDS_P1;SDS_P2;PMS_P1;PMS_P2;Temp;Humidity;BMP_temperature;BMP_pressure;BME280_temperature;BME280_humidity;BME280_pressure;Samples;Min_cycle;Max_cycle;Signal;HPM_P1;HPM_P2
2024/01/03 00:01:26;;;;;;;6.18;4.88;;;;;;;16.32;45.20;91638.97;5025785;28;20088;-90
2024/01/03 00:03:53;;;;;;;6.00;4.28;;;;;;;16.25;45.26;91645.84;4994265;28;20029;-89
2024/01/03 00:06:18;;;;;;;6.63;4.65;;;;;;;16.27;45.21;91639.84;4992746;28;20400;-89
2024/01/03 00:08:43;;;;;;;6.53;5.05;;;;;;;16.30;45.51;91630.59;5029698;28;20033;-90
2024/01/03 00:11:09;;;;;;;5.93;4.10;;;;;;;16.32;45.28;91647.88;5032108;28;20102;-90
2024/01/03 00:13:46;;;;;;;6.53;4.72;;;;;;;16.35;45.49;91649.53;5025624;28;20044;-90
2024/01/03 00:16:21;;;;;;;6.10;4.20;;;;;;;16.31;45.54;91649.16;5052378;28;20508;-90
2024/01/03 00:18:58;;;;;;;8.93;4.70;;;;;;;16.27;45.48;91669.84;5026105;28;20038;-89
2024/01/03 00:21:25;;;;;;;6.75;5.05;;;;;;;16.28;45.14;91644.78;5041738;28;20373;-89
2024/01/03 00:23:55;;;;;;;4.90;3.83;;;;;;;16.33;45.25;91684.78;5015634;28;20348;-90
2024/01/03 00:26:22;;;;;;;;;;;;;;;16.31;45.42;91679.16;5029556;28;20093;-90
2024/01/03 00:28:47;;;;;;;7.05;4.47;;;;;;;16.32;45.66;91669.69;5026095;28;20312;-90
2024/01/03 00:31:19;;;;;;;5.32;4.15;;;;;;;16.31;45.16;91660.06;5027206;28;20446;-90
2024/01/03 00:33:45;;;;;;;7.30;4.80;;;;;;;16.34;45.44;91680.78;5052472;28;20052;-90
2024/01/03 00:36:10;;;;;;;6.03;4.18;;;;;;;16.33;45.91;91681.34;5022503;28;20037;-90
2024/01/03 00:38:37;;;;;;;6.32;4.50;;;;;;;16.31;45.33;91670.22;5021976;28;20304;-90
2024/01/03 00:41:02;;;;;;;6.63;4.80;;;;;;;16.26;45.52;91668.38;5028859;28;20516;-90
2024/01/03 00:43:29;;;;;;;5.85;4.43;;;;;;;16.28;45.31;91674.75;5036532;28;20152;-90
2024/01/03 00:45:54;;;;;;;7.18;5.18;;;;;;;16.30;45.57;91677.69;5032153;28;20661;-90
2024/01/03 00:48:20;;;;;;;6.07;4.55;;;;;;;16.36;45.25;91688.44;5025748;28;20095;-91
2024/01/03 00:50:45;;;;;;;5.70;3.67;;;;;;;16.33;45.48;91678.59;5030709;28;20038;-90
2024/01/03 00:53:12;;;;;;;5.68;4.40;;;;;;;16.26;45.75;91690.94;5041164;28;20060;-90
2024/01/03 00:55:39;;;;;;;5.82;4.40;;;;;;;16.30;45.38;91683.13;5016605;28;20111;-90
2024/01/03 00:58:04;;;;;;;7.43;5.18;;;;;;;16.33;45.24;91684.78;5009155;28;20060;-90
2024/01/03 01:00:30;;;;;;;6.10;4.03;;;;;;;16.32;45.29;91674.41;5049910;28;20345;-90
2024/01/03 01:02:55;;;;;;;6.15;4.00;;;;;;;16.34;45.38;91682.78;5038520;28;20084;-90
2024/01/03 01:05:20;;;;;;;6.95;4.60;;;;;;;16.33;45.39;91684.06;5028248;28;20400;-90
2024/01/03 01:07:46;;;;;;;4.43;3.75;;;;;;;16.38;45.38;91681.19;5028775;28;20044;-90
2024/01/03 01:10:11;;;;;;;5.55;4.20;;;;;;;16.31;45.35;91679.16;5028155;28;20060;-90
2024/01/03 01:12:37;;;;;;;6.65;4.72;;;;;;;16.28;45.55;91682.94;5006800;28;20033;-90
2024/01/03 01:15:03;;;;;;;7.35;4.60;;;;;;;16.27;45.52;91691.66;5028332;28;20044;-90
2024/01/03 01:17:28;;;;;;;6.57;4.43;;;;;;;16.26;45.62;91690.94;5029203;28;20567;-90
2024/01/03 01:19:53;;;;;;;6.45;4.47;;;;;;;16.28;45.50;91706.75;5021308;28;20045;-90
2024/01/03 01:22:19;;;;;;;6.20;4.55;;;;;;;16.32;45.75;91698.97;5023167;28;20047;-90
2024/01/03 01:24:44;;;;;;;5.38;3.92;;;;;;;16.34;45.64;91705.34;5008453;28;20041;-91
2024/01/03 01:27:10;;;;;;;5.57;4.10;;;;;;;16.28;45.57;91691.13;5011464;28;20407;-90
2024/01/03 01:29:36;;;;;;;6.45;4.18;;;;;;;16.31;45.31;91709.13;5008241;28;20463;-90
2024/01/03 01:32:02;;;;;;;4.90;3.85;;;;;;;16.25;45.50;91705.81;5028430;28;20130;-90
2024/01/03 01:34:27;;;;;;;5.30;4.10;;;;;;;16.26;45.36;91712.75;5030662;28;20109;-90
2024/01/03 01:36:53;;;;;;;6.70;4.45;;;;;;;16.28;45.60;91718.38;5037625;28;20041;-90
2024/01/03 01:39:18;;;;;;;6.78;4.40;;;;;;;16.29;45.40;91708.22;5017071;28;20041;-90
2024/01/03 01:41:44;;;;;;;7.07;4.28;;;;;;;16.29;45.69;91722.56;5047583;28;20089;-90
2024/01/03 01:44:10;;;;;;;7.75;4.45;;;;;;;16.33;45.58;91722.97;5047343;28;20036;-90
2024/01/03 01:46:36;;;;;;;6.28;4.13;;;;;;;16.30;45.63;91720.56;5064615;28;20095;-90
2024/01/03 01:49:06;;;;;;;6.78;4.20;;;;;;;16.34;45.40;91721.69;5018944;28;20041;-90
2024/01/03 01:51:32;;;;;;;6.10;4.40;;;;;;;16.34;45.30;91735.34;5019490;28;20043;-90
2024/01/03 01:53:58;;;;;;;5.82;3.85;;;;;;;16.29;45.66;91725.31;5028196;28;20041;-90
2024/01/03 01:56:23;;;;;;;6.43;4.53;;;;;;;16.31;45.54;91722.78;5025919;28;20406;-91
2024/01/03 01:58:49;;;;;;;5.72;4.13;;;;;;;16.31;45.72;91728.22;5011518;28;20407;-90
2024/01/03 02:01:14;;;;;;;7.18;4.75;;;;;;;16.31;45.45;91728.22;5019499;28;20369;-90
2024/01/03 02:03:40;;;;;;;5.75;3.92;;;;;;;16.31;45.59;91727.50;5010828;28;20029;-90
2024/01/03 02:06:08;;;;;;;7.40;3.78;;;;;;;16.31;45.59;91735.69;5027989;28;20029;-90
2024/01/03 02:08:33;;;;;;;5.88;4.25;;;;;;;16.31;45.66;91727.50;5027177;28;20491;-91
2024/01/03 02:10:59;;;;;;;7.28;3.85;;;;;;;16.31;46.05;91711.13;5007536;28;20110;-90
2024/01/03 02:13:24;;;;;;;5.35;3.90;;;;;;;16.35;45.71;91714.97;5015600;28;20040;-89
2024/01/03 02:15:50;;;;;;;5.10;3.78;;;;;;;16.36;45.66;91723.88;5022766;28;20405;-90
2024/01/03 02:18:15;;;;;;;5.57;3.92;;;;;;;16.33;45.91;91727.69;5001956;28;20050;-90
2024/01/03 02:20:41;;;;;;;7.38;4.25;;;;;;;16.28;45.67;91723.84;5011190;28;20087;-90
2024/01/03 02:23:07;;;;;;;6.22;3.95;;;;;;;16.32;45.74;91726.22;5010646;28;20038;-90
2024/01/03 02:25:33;;;;;;;5.72;3.80;;;;;;;16.30;45.95;91729.50;5006892;28;20048;-90
2024/01/03 02:27:58;;;;;;;5.22;3.75;;;;;;;16.33;45.51;91727.69;5012369;28;20049;-89
2024/01/03 02:30:24;;;;;;;5.22;3.42;;;;;;;16.33;45.65;91730.41;5025364;28;20044;-90
2024/01/03 02:32:49;;;;;;;5.63;3.60;;;;;;;16.35;45.43;91730.59;5007379;28;20030;-90
2024/01/03 02:35:15;;;;;;;6.18;3.78;;;;;;;16.37;45.79;91728.81;5018668;28;20042;-90
2024/01/03 02:37:40;;;;;;;5.82;4.00;;;;;;;16.39;45.65;91728.28;5043878;28;20043;-90
2024/01/03 02:40:06;;;;;;;5.10;3.70;;;;;;;16.30;45.89;91728.75;5031484;28;20048;-90
2024/01/03 02:42:32;;;;;;;4.80;3.40;;;;;;;16.27;45.82;91730.56;5025706;28;20095;-90
2024/01/03 02:44:57;;;;;;;4.88;3.92;;;;;;;16.30;46.17;91721.31;5009918;28;20419;-90
2024/01/03 02:47:22;;;;;;;5.90;3.65;;;;;;;16.36;45.77;91730.06;5017502;28;20090;-91
2024/01/03 02:49:48;;;;;;;5.35;3.83;;;;;;;16.33;45.28;91731.16;5038768;28;20044;-90
2024/01/03 02:52:13;;;;;;;4.65;3.83;;;;;;;16.30;45.66;91732.22;5012812;28;20459;-90
2024/01/03 02:54:39;;;;;;;5.65;3.80;;;;;;;16.37;45.88;91741.72;5037927;28;20037;-90
2024/01/03 02:57:04;;;;;;;6.80;3.90;;;;;;;16.31;45.56;91747.31;5030674;28;20037;-90
2024/01/03 02:59:30;;;;;;;5.95;4.07;;;;;;;16.31;45.65;91744.59;5043530;28;20052;-90
2024/01/03 03:01:56;;;;;;;5.18;3.85;;;;;;;16.30;45.74;91750.56;5015059;28;20029;-90
2024/01/03 03:04:22;;;;;;;6.80;3.63;;;;;;;16.31;45.86;91755.50;5015182;28;20039;-90
2024/01/03 03:06:47;;;;;;;4.60;3.60;;;;;;;16.28;45.89;91759.28;5027740;28;20029;-90
2024/01/03 03:09:13;;;;;;;5.38;3.15;;;;;;;16.28;46.02;91751.09;5013128;28;20412;-90
2024/01/03 03:11:39;;;;;;;4.85;3.40;;;;;;;16.31;45.50;91749.31;5029951;28;20044;-90
2024/01/03 03:14:04;;;;;;;5.15;3.50;;;;;;;16.35;45.96;91749.69;5013857;28;20033;-90
2024/01/03 03:16:30;;;;;;;5.28;3.67;;;;;;;16.36;45.69;91753.88;5030728;28;20040;-90
2024/01/03 03:18:56;;;;;;;4.97;3.33;;;;;;;16.30;45.75;91740.41;5042649;28;20032;-90
2024/01/03 03:21:21;;;;;;;5.10;3.35;;;;;;;16.30;45.92;91751.31;5030384;28;20052;-90
2024/01/03 03:23:47;;;;;;;5.35;3.22;;;;;;;16.26;45.67;91748.19;5013913;28;20091;-90
2024/01/03 03:26:15;;;;;;;6.35;4.10;;;;;;;16.26;46.13;91755.63;5010010;28;20488;-90
2024/01/03 03:28:40;;;;;;;3.95;3.30;;;;;;;16.35;45.84;91766.78;5011857;28;20476;-90
2024/01/03 03:31:06;;;;;;;4.65;3.60;;;;;;;16.27;45.83;91757.09;5030421;28;20060;-90
2024/01/03 03:33:32;;;;;;;5.53;3.80;;;;;;;16.22;46.05;91761.44;5022611;28;20502;-90
2024/01/03 03:35:57;;;;;;;4.75;3.22;;;;;;;16.26;45.95;91763.81;5015112;28;20045;-91
2024/01/03 03:38:23;;;;;;;5.38;3.60;;;;;;;16.31;45.72;91758.22;5041836;28;20453;-90
2024/01/03 03:40:53;;;;;;;4.78;3.33;;;;;;;16.29;45.73;91762.75;5052596;28;20044;-90
2024/01/03 03:43:18;;;;;;;4.50;3.30;;;;;;;16.33;45.82;91771.31;5056239;28;20068;-91
2024/01/03 03:45:44;;;;;;;5.68;3.90;;;;;;;16.35;45.88;91772.25;5047958;28;20120;-91
2024/01/03 03:48:11;;;;;;;6.25;3.28;;;;;;;16.27;45.75;91768.00;5032874;28;20033;-90
2024/01/03 03:50:36;;;;;;;4.70;3.75;;;;;;;16.40;45.82;91768.63;5019674;28;20331;-91
2024/01/03 03:53:04;;;;;;;5.53;3.50;;;;;;;16.29;45.75;91777.09;5058328;28;20075;-90
2024/01/03 03:55:29;;;;;;;4.45;3.10;;;;;;;16.30;45.74;91778.56;5031886;28;20069;-90
2024/01/03 03:57:55;;;;;;;3.78;2.90;;;;;;;16.36;45.88;91784.63;5026415;28;20044;-90
2024/01/03 04:00:20;;;;;;;3.55;3.08;;;;;;;16.32;46.27;91786.22;5046123;28;20033;-91
2024/01/03 04:02:46;;;;;;;6.07;3.90;;;;;;;16.32;45.89;91784.22;4998872;28;20058;-91
2024/01/03 04:05:12;;;;;;;4.55;3.22;;;;;;;16.31;46.00;91782.75;5027504;28;20034;-90
2024/01/03 04:07:37;;;;;;;4.90;3.75;;;;;;;16.37;46.15;91775.16;5030247;28;20037;-91
2024/01/03 04:10:03;;;;;;;3.75;2.92;;;;;;;16.35;45.97;91785.16;5038972;28;20448;-90
2024/01/03 04:12:28;;;;;;;4.50;3.30;;;;;;;16.31;45.79;91793.66;5032756;28;20047;-91
2024/01/03 04:14:53;;;;;;;4.45;2.83;;;;;;;16.32;46.15;91786.22;5020498;28;20029;-90
2024/01/03 04:17:19;;;;;;;4.80;3.28;;;;;;;16.33;46.01;91780.22;4994804;28;20076;-91
2024/01/03 04:19:44;;;;;;;4.53;3.08;;;;;;;16.33;45.54;91782.22;4996987;28;20045;-90
2024/01/03 04:22:10;;;;;;;3.83;3.10;;;;;;;16.30;46.07;91783.28;5007119;28;20037;-91
2024/01/03 04:24:35;;;;;;;5.63;3.28;;;;;;;16.38;45.62;91784.81;5000069;28;20048;-90
2024/01/03 04:27:01;;;;;;;3.80;3.00;;;;;;;16.32;45.95;91780.75;5010248;28;20034;-91
2024/01/03 04:29:26;;;;;;;4.15;3.53;;;;;;;16.37;45.78;91779.88;5012306;28;20041;-90
2024/01/03 04:31:51;;;;;;;5.40;3.55;;;;;;;16.28;45.85;91783.81;5029716;28;20037;-91
2024/01/03 04:34:19;;;;;;;5.28;3.38;;;;;;;16.29;45.82;91798.19;5021450;28;20491;-91
2024/01/03 04:36:44;;;;;;;3.90;3.17;;;;;;;16.29;46.31;91796.19;5011584;28;20049;-90
2024/01/03 04:39:10;;;;;;;4.70;3.25;;;;;;;16.32;45.86;91802.56;5037946;28;20044;-91
2024/01/03 04:41:36;;;;;;;5.68;3.08;;;;;;;16.36;45.88;91800.97;5001443;28;20392;-90
2024/01/03 04:44:01;;;;;;;4.63;3.40;;;;;;;16.34;45.60;91802.78;5000039;28;20037;-90
2024/01/03 04:46:26;;;;;;;4.32;3.33;;;;;;;16.38;45.97;91797.72;5032723;28;20072;-91
2024/01/03 04:48:52;;;;;;;5.50;3.75;;;;;;;16.30;46.07;91805.09;5018884;28;20042;-91
2024/01/03 04:51:17;;;;;;;3.92;3.40;;;;;;;16.34;46.00;91803.50;5033384;28;20436;-91
2024/01/03 04:53:43;;;;;;;4.25;3.25;;;;;;;16.31;46.14;91807.31;5013161;28;20052;-91
2024/01/03 04:56:08;;;;;;;5.35;3.47;;;;;;;16.33;45.86;91798.59;5022801;28;20034;-90
2024/01/03 04:58:34;;;;;;;4.63;3.22;;;;;;;16.31;46.14;91796.41;5018683;28;20037;-91
2024/01/03 05:00:59;;;;;;;6.63;4.30;;;;;;;16.35;46.13;91794.06;5042477;28;20045;-91
2024/01/03 05:03:26;;;;;;;4.65;3.50;;;;;;;16.31;46.36;91801.13;5025115;28;20103;-91
2024/01/03 05:05:51;;;;;;;5.88;3.47;;;;;;;16.31;46.12;91788.22;5024263;28;20060;-91
2024/01/03 05:08:16;;;;;;;5.68;3.75;;;;;;;16.31;46.26;91792.94;5041688;28;20416;-90
2024/01/03 05:10:42;;;;;;;9.35;5.38;;;;;;;16.32;46.13;91797.13;5051640;28;20045;-91
2024/01/03 05:13:07;;;;;;;7.05;5.07;;;;;;;16.30;46.15;91805.09;5028802;28;20033;-91
2024/01/03 05:15:33;;;;;;;5.60;4.07;;;;;;;16.23;45.88;91797.63;5021341;28;20041;-91
2024/01/03 05:17:58;;;;;;;9.85;5.93;;;;;;;16.38;46.18;91808.63;5045854;28;20041;-91
2024/01/03 05:20:24;;;;;;;6.50;4.38;;;;;;;16.30;46.16;91803.09;5011897;28;20048;-91
2024/01/03 05:22:50;;;;;;;8.30;4.45;;;;;;;16.32;46.21;91797.84;4997685;28;20041;-91
2024/01/03 05:25:16;;;;;;;7.70;4.80;;;;;;;16.30;45.99;91808.56;5028719;28;20052;-91
2024/01/03 05:27:41;;;;;;;8.43;5.30;;;;;;;16.35;46.11;91799.50;5041124;28;20237;-91
2024/01/03 05:30:07;;;;;;;7.07;4.80;;;;;;;16.37;46.23;91785.34;5018743;28;20076;-91
2024/01/03 05:32:32;;;;;;;7.25;4.55;;;;;;;16.30;46.31;91811.28;5027709;28;20452;-91
2024/01/03 05:34:58;;;;;;;8.63;5.25;;;;;;;16.27;46.02;91801.44;5024335;28;20043;-91
2024/01/03 05:37:23;;;;;;;6.15;4.43;;;;;;;16.26;46.15;91805.44;5010894;28;20522;-90
2024/01/03 05:39:49;;;;;;;6.82;4.75;;;;;;;16.30;46.29;91805.09;5026518;28;20033;-90
2024/01/03 05:42:14;;;;;;;7.80;4.78;;;;;;;16.30;45.94;91800.38;5028080;28;20045;-91
2024/01/03 05:44:39;;;;;;;6.40;4.30;;;;;;;16.35;46.14;91802.25;5011656;28;20029;-91
2024/01/03 05:47:05;;;;;;;7.22;4.90;;;;;;;16.37;45.95;91798.97;5011179;28;20411;-91
2024/01/03 05:49:30;;;;;;;5.55;4.18;;;;;;;16.33;46.00;91804.03;5007634;28;20045;-91
2024/01/03 05:51:56;;;;;;;6.53;4.45;;;;;;;16.30;45.79;91803.09;5023596;28;20032;-91
2024/01/03 05:54:21;;;;;;;5.03;3.75;;;;;;;16.25;46.29;91793.06;5027351;28;20045;-91
2024/01/03 05:56:47;;;;;;;7.63;4.25;;;;;;;16.31;46.39;91799.13;5059286;28;20040;-90
2024/01/03 05:59:12;;;;;;;5.78;3.92;;;;;;;16.41;46.36;91802.09;5064334;28;20060;-91
2024/01/03 06:01:37;;;;;;;5.15;3.90;;;;;;;16.36;46.60;91790.06;5030612;28;20044;-92
2024/01/03 06:04:03;;;;;;;6.82;4.70;;;;;;;16.27;46.58;91792.53;5011130;28;20049;-91
2024/01/03 06:06:28;;;;;;;8.80;5.20;;;;;;;16.35;46.03;91794.06;5002759;28;20041;-91
2024/01/03 06:08:54;;;;;;;5.55;3.80;;;;;;;16.33;46.46;91790.41;5008422;28;20038;-90
2024/01/03 06:11:19;;;;;;;5.10;3.58;;;;;;;16.30;46.30;91794.19;5009505;28;20048;-90
2024/01/03 06:13:45;;;;;;;6.10;4.07;;;;;;;16.30;46.56;91797.66;5028240;28;20036;-90
2024/01/03 06:16:12;;;;;;;6.28;4.38;;;;;;;16.35;46.28;91799.50;5039854;28;20053;-91
2024/01/03 06:18:38;;;;;;;5.30;3.45;;;;;;;16.37;45.87;91788.81;5008201;28;20029;-91
2024/01/03 06:21:09;;;;;;;5.03;3.38;;;;;;;16.32;46.34;91789.69;5010509;28;20053;-90
2024/01/03 06:23:37;;;;;;;5.30;4.05;;;;;;;16.29;46.04;91796.19;5003557;28;20570;-90
2024/01/03 06:26:03;;;;;;;5.80;3.95;;;;;;;16.27;45.94;91800.72;5034439;28;20090;-91
2024/01/03 06:28:28;;;;;;;5.38;3.70;;;;;;;16.29;45.91;91795.47;5015952;28;20045;-90
2024/01/03 06:30:53;;;;;;;7.00;3.70;;;;;;;16.33;46.21;91795.84;5008810;28;20041;-90
2024/01/03 06:33:19;;;;;;;5.35;3.75;;;;;;;16.36;46.03;91792.78;5027325;28;20064;-91
2024/01/03 06:35:44;;;;;;;7.55;4.13;;;;;;;16.32;45.98;91792.41;5018377;28;20045;-90
2024/01/03 06:38:10;;;;;;;7.22;4.15;;;;;;;16.34;46.02;91794.59;5024715;28;20385;-90
2024/01/03 06:40:35;;;;;;;5.07;3.72;;;;;;;16.33;46.13;91785.69;5011112;28;20048;-91
2024/01/03 06:43:01;;;;;;;6.68;3.90;;;;;;;16.33;46.01;91782.22;5036690;28;20036;-90
2024/01/03 06:45:26;;;;;;;6.55;3.95;;;;;;;16.29;46.28;91779.09;5016752;28;20037;-91
2024/01/03 06:47:51;;;;;;;5.28;3.42;;;;;;;16.32;46.13;91770.59;5047508;28;20052;-91
2024/01/03 06:50:17;;;;;;;4.75;3.65;;;;;;;16.31;46.15;91788.22;5048660;28;20036;-91
2024/01/03 06:52:42;;;;;;;6.00;4.15;;;;;;;16.33;46.40;91784.94;5051585;28;20032;-91
2024/01/03 06:55:08;;;;;;;5.55;3.33;;;;;;;16.30;46.13;91786.75;5031277;28;20033;-91
2024/01/03 06:57:33;;;;;;;6.28;4.28;;;;;;;16.30;46.23;91786.75;5018887;28;20047;-91
2024/01/03 06:59:58;;;;;;;5.35;3.60;;;;;;;16.35;45.97;91796.06;5024111;28;20488;-90
2024/01/03 07:02:24;;;;;;;6.55;4.13;;;;;;;16.30;46.46;91791.47;5010371;28;20053;-90
2024/01/03 07:04:50;;;;;;;6.70;4.18;;;;;;;16.28;46.22;91783.09;5000384;28;20037;-91
2024/01/03 07:07:17;;;;;;;5.45;3.25;;;;;;;16.28;46.18;91789.28;5025549;28;20048;-90
2024/01/03 07:09:43;;;;;;;6.38;3.80;;;;;;;16.32;46.06;91789.69;5027967;28;20048;-91
2024/01/03 07:12:08;;;;;;;4.60;3.47;;;;;;;16.29;46.18;91801.66;5011636;28;20030;-90
2024/01/03 07:14:33;;;;;;;5.05;3.50;;;;;;;16.25;46.40;91801.25;5047253;28;20486;-90
2024/01/03 07:17:00;;;;;;;5.22;3.70;;;;;;;16.32;46.15;91802.56;5022999;28;20044;-91
2024/01/03 07:19:26;;;;;;;5.40;3.97;;;;;;;16.37;46.36;91807.16;5038781;28;20033;-91
2024/01/03 07:21:52;;;;;;;5.13;3.65;;;;;;;16.29;46.28;91818.00;5014983;28;20061;-90
2024/01/03 07:24:17;;;;;;;5.03;3.97;;;;;;;16.35;46.23;91832.22;5014038;28;20043;-91
2024/01/03 07:26:42;;;;;;;6.30;3.40;;;;;;;16.33;46.11;91826.59;5035083;28;20033;-91
2024/01/03 07:29:08;;;;;;;3.50;3.08;;;;;;;16.32;46.43;91824.38;5010300;28;20492;-91
2024/01/03 07:31:33;;;;;;;5.10;3.40;;;;;;;16.35;46.04;91815.16;5034857;28;20052;-91
2024/01/03 07:33:59;;;;;;;6.35;3.95;;;;;;;16.29;46.40;91844.53;5031177;28;20029;-91
2024/01/03 07:36:24;;;;;;;4.50;2.97;;;;;;;16.27;46.36;91850.53;5028779;28;20325;-91
2024/01/03 07:38:50;;;;;;;6.85;3.90;;;;;;;16.30;46.24;91846.75;5009842;28;20030;-91
2024/01/03 07:41:20;;;;;;;5.75;3.50;;;;;;;16.29;46.34;91845.28;5017401;28;20030;-91
2024/01/03 07:43:45;;;;;;;5.75;3.85;;;;;;;16.30;46.29;91849.47;5013074;28;20065;-91
2024/01/03 07:46:11;;;;;;;4.45;3.40;;;;;;;16.34;46.04;91849.88;5028914;28;20488;-90
2024/01/03 07:48:36;;;;;;;4.68;3.13;;;;;;;16.27;46.31;91858.72;5039607;28;20039;-91
2024/01/03 07:51:02;;;;;;;5.28;3.50;;;;;;;16.28;46.35;91868.34;5015717;28;20041;-91
2024/01/03 07:53:27;;;;;;;4.80;3.20;;;;;;;16.35;46.24;91861.50;5045507;28;20391;-91
2024/01/03 07:55:53;;;;;;;6.80;4.25;;;;;;;16.36;46.54;91866.41;5044856;28;20068;-91
2024/01/03 07:58:19;;;;;;;6.97;4.05;;;;;;;16.31;46.35;91877.47;5027705;28;20048;-90
2024/01/03 08:00:44;;;;;;;6.22;3.88;;;;;;;16.29;46.61;91878.00;4999312;28;20171;-91
2024/01/03 08:03:10;;;;;;;6.57;4.50;;;;;;;16.36;46.26;91868.41;5045709;28;20490;-91
2024/01/03 08:05:35;;;;;;;6.65;4.65;;;;;;;16.33;46.26;91864.03;5030218;28;20215;-91
2024/01/03 08:08:01;;;;;;;5.95;3.42;;;;;;;16.31;46.14;91874.75;5049381;28;20043;-91
2024/01/03 08:10:27;;;;;;;5.70;3.72;;;;;;;16.37;46.39;91869.88;5047689;28;20544;-91
2024/01/03 08:12:53;;;;;;;8.00;4.50;;;;;;;16.41;46.38;91864.81;5049142;28;20040;-91
2024/01/03 08:15:18;;;;;;;7.10;4.25;;;;;;;16.40;46.13;91861.38;5041855;28;20035;-91
2024/01/03 08:17:44;;;;;;;5.63;4.00;;;;;;;16.37;46.22;91867.16;5045868;28;20048;-91
2024/01/03 08:20:09;;;;;;;10.13;6.10;;;;;;;16.43;46.41;91873.94;5028095;28;20037;-91
2024/01/03 08:22:35;;;;;;;8.52;5.68;;;;;;;16.45;46.33;91882.28;5012985;28;20049;-91
2024/01/03 08:25:00;;;;;;;8.35;5.78;;;;;;;16.42;46.73;91880.66;5022451;28;20452;-91
2024/01/03 08:27:26;;;;;;;7.00;4.43;;;;;;;16.35;46.26;91886.78;5036000;28;20038;-91
2024/01/03 08:29:51;;;;;;;5.65;3.80;;;;;;;16.32;46.62;91881.66;5039944;28;20064;-91
2024/01/03 08:32:17;;;;;;;5.97;4.45;;;;;;;16.42;46.33;91883.38;5035957;28;20044;-91
2024/01/03 08:34:45;;;;;;;5.32;3.50;;;;;;;16.36;46.36;91885.50;4992766;28;20068;-91
2024/01/03 08:37:11;;;;;;;6.90;4.28;;;;;;;16.40;46.26;91883.19;4969244;28;1124969;-91
2024/01/03 08:39:36;;;;;;;5.88;4.47;;;;;;;16.42;46.68;91893.56;5024107;28;20048;-91
2024/01/03 08:42:01;;;;;;;6.53;3.85;;;;;;;16.39;46.30;91887.19;5022785;28;20053;-91
2024/01/03 08:44:28;;;;;;;7.43;4.68;;;;;;;16.39;46.70;91886.44;4997335;28;20425;-90
2024/01/03 08:46:53;;;;;;;6.60;4.18;;;;;;;16.42;46.42;91897.03;5022910;28;20125;-91
2024/01/03 08:49:18;;;;;;;5.15;3.75;;;;;;;16.34;46.51;91890.75;4995205;28;20053;-93
2024/01/03 08:51:48;;;;;;;5.97;3.90;;;;;;;16.41;46.19;91890.09;5041847;28;20083;-91
2024/01/03 08:54:14;;;;;;;8.73;4.82;;;;;;;16.49;46.59;91890.13;5049711;28;20040;-91
2024/01/03 08:56:40;;;;;;;7.32;3.88;;;;;;;16.46;46.25;91889.22;5032285;28;20036;-91
2024/01/03 08:59:05;;;;;;;5.38;3.97;;;;;;;16.41;46.23;91900.28;5048278;28;20048;-90
2024/01/03 09:01:34;;;;;;;4.70;4.00;;;;;;;16.41;46.57;91906.47;5022753;28;20180;-91
2024/01/03 09:03:59;;;;;;;5.95;4.22;;;;;;;16.44;46.26;91916.31;5025977;28;20061;-91
2024/01/03 09:06:25;;;;;;;6.80;3.88;;;;;;;16.39;46.30;91919.91;4992857;28;20045;-91
2024/01/03 09:08:51;;;;;;;128.45;78.53;;;;;;;16.43;46.46;91917.56;5024015;28;20036;-90
2024/01/03 09:11:22;;;;;;;15.38;11.80;;;;;;;16.53;46.06;91915.09;5011684;28;20553;-88
2024/01/03 09:13:48;;;;;;;12.93;8.90;;;;;;;16.55;46.33;91928.94;5027657;28;20106;-91
2024/01/03 09:16:14;;;;;;;6.82;5.22;;;;;;;16.53;46.16;91928.00;5037750;28;20522;-92
2024/01/03 09:18:39;;;;;;;12.32;7.22;;;;;;;16.53;46.13;91925.25;5028531;28;20044;-92
2024/01/03 09:21:05;;;;;;;9.57;7.00;;;;;;;16.50;46.11;91929.06;5027442;28;20032;-91
2024/01/03 09:23:30;;;;;;;9.70;5.97;;;;;;;16.48;46.19;91943.22;5012781;28;20040;-92
2024/01/03 09:25:56;;;;;;;8.02;5.57;;;;;;;16.49;46.02;91939.22;5010774;28;20440;-91
2024/01/03 09:28:22;;;;;;;8.70;5.25;;;;;;;16.50;45.92;91946.16;5026175;28;20045;-92
2024/01/03 09:30:48;;;;;;;10.15;5.90;;;;;;;16.45;46.54;91947.03;5029301;28;20034;-92
2024/01/03 09:33:13;;;;;;;7.15;4.97;;;;;;;16.55;46.16;91950.75;5014470;28;20037;-91
2024/01/03 09:35:39;;;;;;;6.38;4.30;;;;;;;16.48;46.60;91951.41;5024987;28;20516;-92
2024/01/03 09:38:05;;;;;;;6.22;4.55;;;;;;;16.49;46.21;91950.16;5016774;28;20405;-91
2024/01/03 09:40:31;;;;;;;7.90;5.00;;;;;;;16.47;46.27;91947.22;5000039;28;20030;-92
2024/01/03 09:42:57;;;;;;;5.78;4.38;;;;;;;16.42;46.83;91957.03;5008990;28;20049;-91
2024/01/03 09:45:22;;;;;;;6.15;4.47;;;;;;;16.49;46.41;91946.69;4992459;28;20053;-92
2024/01/03 09:47:48;;;;;;;7.53;4.75;;;;;;;16.46;46.31;91937.56;5020389;28;20037;-91
2024/01/03 09:50:13;;;;;;;7.90;5.43;;;;;;;16.53;46.17;91944.34;5017849;28;20038;-92
2024/01/03 09:52:39;;;;;;;7.30;4.82;;;;;;;16.46;46.26;91938.31;5018187;28;20052;-92
2024/01/03 09:55:09;;;;;;;9.18;5.68;;;;;;;16.46;46.27;91943.75;4995889;28;20037;-92
2024/01/03 09:57:34;;;;;;;7.85;4.70;;;;;;;16.45;46.39;91938.84;5016515;28;20063;-91
2024/01/03 09:59:59;;;;;;;9.20;5.30;;;;;;;16.44;46.53;91938.13;5013883;28;20400;-92
2024/01/03 10:02:27;;;;;;;6.95;4.75;;;;;;;16.41;46.57;91944.66;5020858;28;20045;-91
2024/01/03 10:04:53;;;;;;;5.90;4.40;;;;;;;16.44;46.35;91938.13;5022486;28;20101;-92
2024/01/03 10:07:24;;;;;;;11.00;6.07;;;;;;;16.50;46.90;91937.25;5047154;28;20037;-92
2024/01/03 10:09:49;;;;;;;;;;;;;;;16.46;46.28;91930.13;5034517;28;20036;-91
2024/01/03 10:12:18;;;;;;;7.10;5.03;;;;;;;16.49;46.56;91925.59;5040975;28;19928;-93
2024/01/03 10:14:45;;;;;;;6.35;4.70;;;;;;;16.43;46.47;91933.22;5029126;28;20047;-92
2024/01/03 10:17:10;;;;;;;6.90;4.63;;;;;;;16.45;46.47;91927.94;5009533;28;20088;-93
2024/01/03 10:19:36;;;;;;;6.65;4.65;;;;;;;16.48;46.62;91920.66;5048569;28;20273;-92
2024/01/03 10:22:02;;;;;;;6.72;4.75;;;;;;;16.44;46.19;91919.03;5047888;28;20111;-92
2024/01/03 10:24:28;;;;;;;7.10;4.85;;;;;;;16.43;46.26;91920.31;5027612;28;20303;-92
2024/01/03 10:26:54;;;;;;;7.05;4.60;;;;;;;16.43;46.42;91919.56;5008201;28;20032;-92
2024/01/03 10:29:20;;;;;;;7.05;4.75;;;;;;;16.46;46.26;91905.56;5029081;28;20091;-92
2024/01/03 10:31:46;;;;;;;7.85;5.30;;;;;;;16.46;46.58;91907.56;5010224;28;20037;-92
2024/01/03 10:34:16;;;;;;;8.63;5.03;;;;;;;16.47;46.38;91914.50;5027210;28;20040;-92
2024/01/03 10:36:49;;;;;;;6.25;4.53;;;;;;;16.49;46.53;91903.03;5001417;28;20057;-93
2024/01/03 10:39:15;;;;;;;5.95;4.45;;;;;;;16.40;46.35;91901.53;5036315;28;20124;-91
2024/01/03 10:41:43;;;;;;;7.20;4.90;;;;;;;16.42;46.73;91886.09;5016860;28;20040;-92
2024/01/03 10:44:09;;;;;;;6.57;4.70;;;;;;;16.52;46.22;91904.72;5030687;28;20495;-91
2024/01/03 10:46:35;;;;;;;5.53;4.30;;;;;;;16.49;46.44;91909.22;5047122;28;20048;-92
2024/01/03 10:49:02;;;;;;;6.38;4.72;;;;;;;16.52;46.42;91896.53;5011274;28;20326;-92
2024/01/03 10:51:30;;;;;;;8.13;5.32;;;;;;;16.50;46.54;91904.50;5021922;28;20044;-92
2024/01/03 10:53:58;;;;;;;7.25;4.00;;;;;;;16.51;46.55;91912.16;5036139;28;20045;-92
2024/01/03 10:56:27;;;;;;;6.40;4.45;;;;;;;16.50;46.65;91907.22;5011091;28;20060;-91
2024/01/03 10:58:53;;;;;;;6.25;4.20;;;;;;;16.51;46.72;91903.25;5044432;28;20036;-93
2024/01/03 11:01:29;;;;;;;7.00;4.25;;;;;;;16.44;46.58;91910.13;4993057;28;20124;-92
2024/01/03 11:04:10;;;;;;;5.97;3.90;;;;;;;16.49;46.51;91903.03;5007225;28;20520;-92
2024/01/03 11:07:09;;;;;;;6.07;4.55;;;;;;;16.45;46.48;91914.31;5027708;28;20070;-93
2024/01/03 11:09:35;;;;;;;6.35;4.40;;;;;;;16.41;46.53;91898.28;5015241;28;20411;-92
2024/01/03 11:12:07;;;;;;;6.57;4.38;;;;;;;16.43;46.40;91906.66;5008225;28;20033;-92
2024/01/03 11:14:33;;;;;;;7.22;4.93;;;;;;;16.42;46.58;91907.19;5019714;28;20151;-92
2024/01/03 11:16:58;;;;;;;6.93;4.10;;;;;;;16.43;46.52;91903.22;5003917;28;20029;-92
2024/01/03 11:19:28;;;;;;;6.05;5.00;;;;;;;16.45;46.70;91906.13;5027380;28;20040;-92
2024/01/03 11:21:54;;;;;;;6.95;4.38;;;;;;;16.48;46.26;91901.59;5029115;28;20040;-92
2024/01/03 11:24:20;;;;;;;6.20;4.03;;;;;;;16.53;46.30;91895.25;5011121;28;20044;-91
2024/01/03 11:26:54;;;;;;;6.88;4.20;;;;;;;16.52;46.64;91899.25;5044590;28;20400;-92
2024/01/03 11:29:48;;;;;;;5.95;4.45;;;;;;;16.50;46.85;91902.50;5043597;28;20037;-92